Time;durP1;ratioP1;P1;durP2;ratioP2;P2;SDS_P1;SDS_P2;PMS_P1;PMS_P2;Temp;Humidity;BMP_temperature;BMP_pressure;BME280_temperature;BME280_humidity;BME280_pressure;Samples;Min_cycle;Max_cycle;Signal;HPM_P1;HPM_P2
2022/06/13 00:01:30;;;;;;;;;;;;;;;16.88;100.00;99343.13;5051281;28;19936;-53
2022/06/13 00:03:57;;;;;;;;;;;;;;;17.00;100.00;99341.09;5051129;28;20311;-54
2022/06/13 00:06:23;;;;;;;;;;;;;;;17.05;100.00;99338.69;5051180;28;19931;-53
2022/06/13 00:08:49;;;;;;;;;;;;;;;16.96;100.00;99340.31;5051088;28;19928;-51
2022/06/13 00:11:17;;;;;;;;;;;;;;;16.84;100.00;99349.88;5051022;28;19990;-53
2022/06/13 00:13:44;;;;;;;;;;;;;;;16.90;100.00;99354.59;5050922;28;19951;-52
2022/06/13 00:16:10;;;;;;;;;;;;;;;16.79;100.00;99359.38;5050812;28;19924;-50
2022/06/13 00:18:36;;;;;;;;;;;;;;;16.67;100.00;99379.19;5050745;28;19931;-50
2022/06/13 00:21:02;;;;;;;;;;;;;;;16.74;100.00;99359.78;5050878;28;19924;-51
2022/06/13 00:23:28;;;;;;;;;;;;;;;16.51;100.00;99359.47;5051158;28;19979;-53
2022/06/13 00:25:54;;;;;;;;;;;;;;;16.56;100.00;99382.00;5050752;28;20388;-51
2022/06/13 00:28:20;;;;;;;;;;;;;;;16.51;100.00;99376.84;5051147;28;19924;-51
2022/06/13 00:30:46;;;;;;;;;;;;;;;16.47;100.00;99376.06;5050907;28;19924;-51
2022/06/13 00:33:12;;;;;;;;;;;;;;;16.39;100.00;99383.63;5050804;28;19931;-51
2022/06/13 00:35:39;;;;;;;;;;;;;;;16.24;100.00;99371.78;5050663;28;19975;-53
2022/06/13 00:38:05;;;;;;;;;;;;;;;16.32;100.00;99377.28;5050490;28;20022;-50
2022/06/13 00:40:31;;;;;;;;;;;;;;;16.27;100.00;99374.94;5050742;28;20341;-50
2022/06/13 00:42:57;;;;;;;;;;;;;;;16.27;100.00;99377.72;5050552;28;20292;-51
2022/06/13 00:45:24;;;;;;;;;;;;;;;16.13;100.00;99378.53;5050590;28;20387;-50
2022/06/13 00:47:53;;;;;;;;;;;;;;;16.11;100.00;99384.44;5050561;28;19924;-50
2022/06/13 00:50:22;;;;;;;;;;;;;;;15.95;100.00;99393.13;5050113;28;19935;-51
2022/06/13 00:52:50;;;;;;;;;;;;;;;15.94;100.00;99418.41;5050422;28;20285;-50
2022/06/13 00:55:19;;;;;;;;;;;;;;;15.85;100.00;99415.25;5050916;28;20394;-50
2022/06/13 00:57:45;;;;;;;;;;;;;;;15.83;100.00;99429.47;5050436;28;19924;-51
2022/06/13 01:00:13;;;;;;;;;;;;;;;15.86;100.00;99412.09;5050747;28;20270;-50
2022/06/13 01:02:41;;;;;;;;;;;;;;;15.79;100.00;99416.81;5050077;28;19978;-49
2022/06/13 01:05:08;;;;;;;;;;;;;;;15.69;100.00;99419.19;5050470;28;19925;-50
2022/06/13 01:07:35;;;;;;;;;;;;;;;15.63;100.00;99423.50;5050223;28;19947;-50
2022/06/13 01:12:46;;;;;;;;;;;;;;;15.50;100.00;99438.88;5050496;28;20354;-50
2022/06/13 01:15:20;;;;;;;;;;;;;;;15.43;100.00;99461.75;5050173;28;19924;-50
2022/06/13 01:17:59;;;;;;;;;;;;;;;15.49;100.00;99457.44;5050332;28;19931;-49
2022/06/13 01:20:34;;;;;;;;;;;;;;;15.46;100.00;99451.88;5049945;28;19969;-49
2022/06/13 01:23:15;;;;;;;;;;;;;;;15.41;100.00;99466.88;5050022;28;19924;-50
2022/06/13 01:25:52;;;;;;;;;;;;;;;15.34;100.00;99455.00;5046664;28;19924;-50
2022/06/13 01:28:39;;;;;;;;;;;;;;;15.36;100.00;99447.91;5050115;28;19974;-51
2022/06/13 01:31:10;;;;;;;;;;;;;;;15.41;100.00;99438.44;5016163;28;19925;-49
2022/06/13 01:33:42;;;;;;;;;;;;;;;15.29;100.00;99411.97;5049894;28;19925;-50
2022/06/13 01:36:18;;;;;;;;;;;;;;;15.27;100.00;99398.56;5049693;28;20326;-50
2022/06/13 01:38:50;;;;;;;;;;;;;;;15.31;100.00;99373.69;5049625;28;20269;-52
2022/06/13 01:41:19;;;;;;;;;;;;;;;15.31;100.00;99357.13;5049780;28;19928;-53
2022/06/13 01:43:49;;;;;;;;;;;;;;;15.28;100.00;99335.81;5049788;28;19931;-50
2022/06/13 01:46:18;;;;;;;;;;;;;;;15.28;100.00;99295.16;5049703;28;19924;-50
2022/06/13 01:48:49;;;;;;;;;;;;;;;15.30;100.00;99286.50;5049928;28;19924;-51
2022/06/13 01:51:19;;;;;;;;;;;;;;;15.27;100.00;99268.75;5050188;28;19925;-52
2022/06/13 01:53:49;;;;;;;;;;;;;;;15.29;100.00;99251.75;5049973;28;19928;-53
2022/06/13 01:56:16;;;;;;;;;;;;;;;15.29;100.00;99240.72;5049562;28;20462;-50
2022/06/13 01:58:45;;;;;;;;;;;;;;;15.24;100.00;99222.59;5049716;28;19951;-53
2022/06/13 02:01:15;;;;;;;;;;;;;;;15.20;100.00;99232.06;5049623;28;19925;-52
2022/06/13 02:03:43;;;;;;;;;;;;;;;15.30;100.00;99196.16;5051559;28;19928;-53
2022/06/13 02:06:14;;;;;;;;;;;;;;;15.22;100.00;99191.00;5053220;28;19925;-51
2022/06/13 02:08:44;;;;;;;;;;;;;;;15.28;100.00;99148.78;5053146;28;19925;-50
2022/06/13 02:11:13;;;;;;;;;;;;;;;15.35;100.00;99116.81;5053111;28;19925;-51
2022/06/13 02:13:41;;;;;;;;;;;;;;;15.32;100.00;99110.13;5053135;28;19935;-50
2022/06/13 02:16:08;;;;;;;;;;;;;;;15.40;100.00;99099.84;5053320;28;19925;-51
2022/06/13 02:18:36;;;;;;;;;;;;;;;15.42;100.00;99072.59;5053004;28;19924;-51
2022/06/13 02:21:06;;;;;;;;;;;;;;;15.79;100.00;99018.78;5053170;28;19924;-52
2022/06/13 02:23:35;;;;;;;;;;;;;;;16.34;100.00;98888.81;5052537;28;19950;-53
2022/06/13 02:26:04;;;;;;;;;;;;;;;16.74;100.00;98700.16;5052631;28;19924;-51
2022/06/13 02:28:33;;;;;;;;;;;;;;;17.24;100.00;98522.91;5052651;28;19925;-53
2022/06/13 02:31:01;;;;;;;;;;;;;;;17.60;100.00;98322.66;5052923;28;20323;-53
2022/06/13 02:33:30;;;;;;;;;;;;;;;17.92;100.00;98186.03;5052478;28;19931;-52
2022/06/13 02:35:59;;;;;;;;;;;;;;;18.11;100.00;98082.47;5052656;28;19931;-50
2022/06/13 02:38:29;;;;;;;;;;;;;;;18.09;100.00;98070.25;5052437;28;19924;-50
2022/06/13 02:40:57;;;;;;;;;;;;;;;18.21;100.00;98118.66;5052481;28;19925;-50
2022/06/13 02:43:27;;;;;;;;;;;;;;;18.63;100.00;98079.72;5052795;28;19990;-53
2022/06/13 02:45:55;;;;;;;;;;;;;;;18.89;100.00;98050.69;5052375;28;19924;-50
2022/06/13 02:48:24;;;;;;;;;;;;;;;19.23;100.00;98018.63;5052189;28;19925;-53
2022/06/13 02:50:54;;;;;;;;;;;;;;;19.19;100.00;98010.41;5052285;28;20415;-51
2022/06/13 02:53:23;;;;;;;;;;;;;;;19.42;100.00;97975.03;5052257;28;19924;-52
2022/06/13 02:55:53;;;;;;;;;;;;;;;19.32;100.00;97979.00;5052208;28;19924;-53
2022/06/13 02:58:24;;;;;;;;;;;;;;;19.86;100.00;97986.94;5052162;28;19936;-54
2022/06/13 03:00:54;;;;;;;;;;;;;;;20.11;100.00;97999.09;5052129;28;19925;-50
2022/06/13 03:03:22;;;;;;;;;;;;;;;20.31;100.00;98024.50;5051878;28;19976;-54
2022/06/13 03:05:57;;;;;;;;;;;;;;;20.50;100.00;98025.38;5052143;28;20300;-53
2022/06/13 03:08:32;;;;;;;;;;;;;;;20.90;100.00;98086.59;5051792;28;19924;-52
2022/06/13 03:11:01;;;;;;;;;;;;;;;20.85;100.00;98089.97;5051964;28;19925;-52
2022/06/13 03:13:32;;;;;;;;;;;;;;;21.14;100.00;98100.72;5051767;28;19932;-54
2022/06/13 03:16:02;;;;;;;;;;;;;;;21.08;100.00;98122.09;5052199;28;20288;-54
2022/06/13 03:18:29;;;;;;;;;;;;;;;21.19;100.00;98154.31;5051963;28;19925;-53
2022/06/13 03:20:58;;;;;;;;;;;;;;;21.16;100.00;98156.03;5051707;28;19924;-52
2022/06/13 03:23:29;;;;;;;;;;;;;;;21.38;100.00;98128.03;5051798;28;19925;-54
2022/06/13 03:25:58;;;;;;;;;;;;;;;21.54;100.00;98163.22;5051809;28;20316;-54
2022/06/13 03:28:27;;;;;;;;;;;;;;;21.65;100.00;98207.41;5051795;28;20042;-55
2022/06/13 03:30:56;;;;;;;;;;;;;;;21.84;100.00;98198.56;5051514;28;20399;-54
2022/06/13 03:33:42;;;;;;;;;;;;;;;21.87;100.00;98205.25;5051522;28;19931;-54
2022/06/13 03:36:11;;;;;;;;;;;;;;;22.09;100.00;98217.03;5051555;28;19929;-54
2022/06/13 03:38:39;;;;;;;;;;;;;;;22.05;100.00;98229.56;5051604;28;19932;-54
2022/06/13 03:41:07;;;;;;;;;;;;;;;22.08;100.00;98250.97;5051624;28;19924;-52
2022/06/13 03:43:36;;;;;;;;;;;;;;;21.91;100.00;98267.25;5051506;28;19931;-54
2022/06/13 03:46:06;;;;;;;;;;;;;;;22.15;100.00;98249.88;5051525;28;20350;-55
2022/06/13 03:48:38;;;;;;;;;;;;;;;21.87;100.00;98261.06;5051491;28;19936;-54
2022/06/13 03:51:08;;;;;;;;;;;;;;;22.35;100.00;98243.84;5051481;28;19924;-55
2022/06/13 03:53:39;;;;;;;;;;;;;;;22.48;100.00;98275.19;5051321;28;19931;-55
2022/06/13 03:56:10;;;;;;;;;;;;;;;22.65;100.00;98286.81;5051150;28;20310;-56
2022/06/13 03:58:40;;;;;;;;;;;;;;;22.92;100.00;98280.38;5051111;28;19931;-55
2022/06/13 04:01:09;;;;;;;;;;;;;;;23.17;100.00;98321.97;5051408;28;20525;-54
2022/06/13 04:03:36;;;;;;;;;;;;;;;23.64;100.00;98328.91;5051357;28;19925;-55
2022/06/13 04:06:03;;;;;;;;;;;;;;;23.45;100.00;98366.59;5051455;28;19924;-55
2022/06/13 04:08:31;;;;;;;;;;;;;;;23.59;100.00;98356.75;5051643;28;19935;-56
2022/06/13 04:11:03;;;;;;;;;;;;;;;23.42;100.00;98368.31;5051034;28;19950;-55
2022/06/13 04:13:40;;;;;;;;;;;;;;;23.90;100.00;98387.28;5051243;28;19928;-56
2022/06/13 04:16:16;;;;;;;;;;;;;;;23.48;100.00;98402.03;5050912;28;19932;-55
2022/06/13 04:18:52;;;;;;;;;;;;;;;23.99;100.00;98401.19;5050854;28;20387;-57
2022/06/13 04:21:24;;;;;;;;;;;;;;;23.83;100.00;98407.22;5051243;28;19925;-55
2022/06/13 04:23:52;;;;;;;;;;;;;;;24.14;100.00;98409.69;5050993;28;19925;-56
2022/06/13 04:26:20;;;;;;;;;;;;;;;24.36;100.00;98420.63;5050190;28;20395;-56
2022/06/13 04:28:51;;;;;;;;;;;;;;;24.65;100.00;98389.91;5050792;28;19924;-57
2022/06/13 04:31:18;;;;;;;;;;;;;;;23.89;100.00;98380.91;5050943;28;19924;-55
2022/06/13 04:33:46;;;;;;;;;;;;;;;23.85;100.00;98385.88;5050466;28;19932;-56
2022/06/13 04:36:14;;;;;;;;;;;;;;;23.80;100.00;98402.56;5051037;28;19970;-55
2022/06/13 04:38:41;;;;;;;;;;;;;;;23.73;100.00;98377.72;5050233;28;19924;-57
2022/06/13 04:41:09;;;;;;;;;;;;;;;23.40;100.00;98353.28;5050530;28;19925;-56
2022/06/13 04:43:37;;;;;;;;;;;;;;;24.28;100.00;98374.59;5050582;28;19971;-57
2022/06/13 04:46:05;;;;;;;;;;;;;;;24.37;100.00;98402.56;5050398;28;19924;-57
2022/06/13 04:48:32;;;;;;;;;;;;;;;24.82;100.00;98397.88;5050468;28;20019;-57
2022/06/13 04:51:00;;;;;;;;;;;;;;;25.17;100.00;98445.72;5050416;28;19924;-57
2022/06/13 04:53:29;;;;;;;;;;;;;;;25.02;100.00;98458.91;5050262;28;19925;-56
2022/06/13 04:55:55;;;;;;;;;;;;;;;24.25;100.00;98435.13;5050253;28;19925;-57
2022/06/13 04:58:26;;;;;;;;;;;;;;;24.50;100.00;98430.34;5050231;28;20308;-57
2022/06/13 05:00:55;;;;;;;;;;;;;;;24.40;100.00;98441.63;5049958;28;19975;-55
2022/06/13 05:03:24;;;;;;;;;;;;;;;24.67;100.00;98445.50;5050187;28;19970;-57
2022/06/13 05:05:53;;;;;;;;;;;;;;;24.72;100.00;98439.22;5050052;28;19925;-57
2022/06/13 05:08:22;;;;;;;;;;;;;;;24.95;100.00;98457.25;5050105;28;20474;-57
2022/06/13 05:10:50;;;;;;;;;;;;;;;24.78;100.00;98453.34;5050246;28;19935;-57
2022/06/13 05:13:17;;;;;;;;;;;;;;;24.76;100.00;98431.41;5050005;28;19924;-57
2022/06/13 05:15:45;;;;;;;;;;;;;;;25.55;100.00;98458.88;5049991;28;19928;-57
2022/06/13 05:18:26;;;;;;;;;;;;;;;25.81;100.00;98492.03;5049760;28;19932;-57
2022/06/13 05:21:01;;;;;;;;;;;;;;;24.94;100.00;98489.34;5049995;28;19932;-57
2022/06/13 05:23:40;;;;;;;;;;;;;;;25.09;100.00;98492.97;5049646;28;19924;-57
2022/06/13 05:26:06;;;;;;;;;;;;;;;25.07;100.00;98481.47;5050151;28;19924;-57
2022/06/13 05:28:33;;;;;;;;;;;;;;;24.87;100.00;98504.50;5049908;28;19940;-57
2022/06/13 05:31:00;;;;;;;;;;;;;;;25.30;100.00;98507.16;5049924;28;20292;-56
2022/06/13 05:33:27;;;;;;;;;;;;;;;25.42;100.00;98508.13;5049981;28;19974;-57
2022/06/13 05:35:55;;;;;;;;;;;;;;;25.59;100.00;98521.22;5049690;28;20334;-57
2022/06/13 05:38:29;;;;;;;;;;;;;;;25.05;100.00;98508.44;5052797;28;20284;-57
2022/06/13 05:40:55;;;;;;;;;;;;;;;25.42;100.00;98525.75;5053143;28;20387;-57
2022/06/13 05:43:21;;;;;;;;;;;;;;;25.80;100.00;98530.56;5053396;28;19925;-57
2022/06/13 05:45:47;;;;;;;;;;;;;;;26.01;100.00;98536.25;5053317;28;19978;-57
2022/06/13 05:48:14;;;;;;;;;;;;;;;25.95;100.00;98550.19;5053558;28;20401;-57
2022/06/13 05:50:40;;;;;;;;;;;;;;;25.71;100.00;98583.19;5053152;28;20452;-57
2022/06/13 05:53:06;;;;;;;;;;;;;;;25.89;100.00;98577.44;5053077;28;19924;-57
2022/06/13 05:55:34;;;;;;;;;;;;;;;26.64;100.00;98580.94;5052865;28;19982;-57
2022/06/13 05:58:01;;;;;;;;;;;;;;;26.95;100.00;98602.84;5053267;28;19974;-57
2022/06/13 06:00:29;;;;;;;;;;;;;;;26.66;100.00;98582.00;5053014;28;19925;-57
2022/06/13 06:02:55;;;;;;;;;;;;;;;26.77;100.00;98570.16;5052929;28;20301;-57
2022/06/13 06:05:21;;;;;;;;;;;;;;;27.25;100.00;98558.50;5053009;28;19929;-57
2022/06/13 06:07:47;;;;;;;;;;;;;;;27.05;100.00;98584.56;5052741;28;19931;-57
2022/06/13 06:10:16;;;;;;;;;;;;;;;27.48;100.00;98572.84;5053079;28;19931;-57
2022/06/13 06:12:43;;;;;;;;;;;;;;;27.83;100.00;98586.81;5052701;28;19925;-57
2022/06/13 06:15:09;;;;;;;;;;;;;;;28.35;100.00;98600.84;5052627;28;19983;-57
2022/06/13 06:17:35;;;;;;;;;;;;;;;27.47;100.00;98600.22;5052430;28;19970;-57
2022/06/13 06:20:01;;;;;;;;;;;;;;;28.02;100.00;98609.78;5052489;28;19928;-57
2022/06/13 06:22:27;;;;;;;;;;;;;;;28.52;100.00;98596.13;5052484;28;19931;-57
2022/06/13 06:24:53;;;;;;;;;;;;;;;28.01;100.00;98599.78;5052381;28;19928;-57
2022/06/13 06:27:19;;;;;;;;;;;;;;;28.03;100.00;98611.34;5052619;28;19928;-57
2022/06/13 06:29:46;;;;;;;;;;;;;;;27.69;100.00;98614.56;5052261;28;19928;-57
2022/06/13 06:32:12;;;;;;;;;;;;;;;27.72;100.00;98604.31;5052567;28;20397;-58
2022/06/13 06:34:38;;;;;;;;;;;;;;;27.96;100.00;98606.91;5052144;28;19925;-57
2022/06/13 06:37:04;;;;;;;;;;;;;;;27.90;100.00;98606.84;5052379;28;19969;-57
2022/06/13 06:39:30;;;;;;;;;;;;;;;28.38;99.70;98608.28;5052134;28;19924;-57
2022/06/13 06:41:56;;;;;;;;;;;;;;;28.65;95.65;98620.31;5052364;28;19924;-57
2022/06/13 06:44:22;;;;;;;;;;;;;;;27.80;99.20;98610.34;5052000;28;19925;-57
2022/06/13 06:46:48;;;;;;;;;;;;;;;27.33;100.00;98587.78;5052236;28;19924;-57
2022/06/13 06:49:14;;;;;;;;;;;;;;;27.06;100.00;98588.16;5051263;28;19976;-57
2022/06/13 06:51:41;;;;;;;;;;;;;;;26.72;100.00;98582.88;5051978;28;19932;-57
2022/06/13 06:59:54;;;;;;;;;;;;;;;26.95;100.00;98581.13;5051912;28;19951;-57
2022/06/13 07:02:23;;;;;;;;;;;;;;;27.01;100.00;98584.00;5051759;28;19929;-57
2022/06/13 07:04:50;;;;;;;;;;;;;;;26.24;100.00;98557.06;5052128;28;19928;-57
2022/06/13 07:07:16;;;;;;;;;;;;;;;26.58;100.00;98540.72;5051729;28;20012;-57
2022/06/13 07:09:42;;;;;;;;;;;;;;;26.24;100.00;98557.06;5051646;28;19925;-57
2022/06/13 07:12:08;;;;;;;;;;;;;;;27.25;100.00;98569.75;5051655;28;19931;-57
2022/06/13 07:14:35;;;;;;;;;;;;;;;27.78;100.00;98565.00;5051665;28;19924;-57
2022/06/13 07:17:03;;;;;;;;;;;;;;;28.82;100.00;98578.88;5051675;28;20256;-57
2022/06/13 07:19:29;;;;;;;;;;;;;;;29.59;100.00;98591.06;5051412;28;19928;-57
2022/06/13 07:21:55;;;;;;;;;;;;;;;29.14;100.00;98596.53;5051953;28;20415;-57
2022/06/13 07:24:21;;;;;;;;;;;;;;;29.76;96.37;98608.09;5051507;28;20034;-57
2022/06/13 07:26:48;;;;;;;;;;;;;;;29.14;97.84;98601.41;5051766;28;20356;-57
2022/06/13 07:29:16;;;;;;;;;;;;;;;29.30;99.54;98586.59;5051315;28;20315;-57
2022/06/13 07:31:43;;;;;;;;;;;;;;;29.70;96.17;98599.59;5051536;28;19925;-58
2022/06/13 07:34:13;;;;;;;;;;;;;;;30.40;96.14;98602.78;5051346;28;19929;-57
2022/06/13 07:36:40;;;;;;;;;;;;;;;30.73;96.10;98596.31;5051299;28;20260;-57
2022/06/13 07:39:06;;;;;;;;;;;;;;;30.13;91.59;98622.00;5051418;28;19994;-57
2022/06/13 07:41:32;;;;;;;;;;;;;;;29.33;100.00;98588.41;5051163;28;19932;-57
2022/06/13 07:43:59;;;;;;;;;;;;;;;29.91;98.06;98600.13;5051243;28;19971;-57
2022/06/13 07:46:26;;;;;;;;;;;;;;;30.02;94.67;98605.03;5050994;28;19924;-57
2022/06/13 07:48:52;;;;;;;;;;;;;;;30.16;92.78;98623.03;5051564;28;19924;-57
2022/06/13 07:51:18;;;;;;;;;;;;;;;30.19;93.08;98617.16;5050979;28;19932;-57
2022/06/13 07:53:45;;;;;;;;;;;;;;;30.20;97.60;98604.56;5051496;28;19925;-57
2022/06/13 07:56:12;;;;;;;;;;;;;;;29.73;92.10;98615.50;5050951;28;19967;-57
2022/06/13 07:58:38;;;;;;;;;;;;;;;29.37;92.61;98608.69;5051028;28;19982;-57
2022/06/13 08:01:05;;;;;;;;;;;;;;;29.96;87.80;98624.03;5049715;28;20019;-57
2022/06/13 08:03:32;;;;;;;;;;;;;;;30.16;88.77;98606.09;5050766;28;20327;-58
2022/06/13 08:05:58;;;;;;;;;;;;;;;29.79;89.16;98612.72;5050954;28;19924;-57
2022/06/13 08:08:24;;;;;;;;;;;;;;;29.33;93.59;98599.69;5050634;28;19924;-57
2022/06/13 08:10:52;;;;;;;;;;;;;;;28.75;95.61;98588.59;5051064;28;20303;-57
2022/06/13 08:13:19;;;;;;;;;;;;;;;29.71;95.10;98594.69;5050579;28;19924;-57
2022/06/13 08:15:45;;;;;;;;;;;;;;;30.65;94.88;98587.56;5050614;28;20284;-57
2022/06/13 08:18:11;;;;;;;;;;;;;;;30.68;88.92;98611.22;5050513;28;19986;-57
2022/06/13 08:20:37;;;;;;;;;;;;;;;30.52;83.39;98623.31;5050905;28;19925;-58
2022/06/13 08:23:10;;;;;;;;;;;;;;;29.41;84.36;98628.22;5211696;27;19929;-58
2022/06/13 08:25:37;;;;;;;;;;;;;;;29.98;82.85;98635.59;5211037;27;20456;-58
2022/06/13 08:28:04;;;;;;;;;;;;;;;30.38;82.31;98640.03;5211404;27;19954;-58
2022/06/13 08:30:33;;;;;;;;;;;;;;;30.13;81.10;98643.84;5211505;27;19930;-58
2022/06/13 08:32:59;;;;;;;;;;;;;;;30.15;83.69;98633.56;5211069;27;20037;-57
2022/06/13 08:35:26;;;;;;;;;;;;;;;30.46;83.73;98641.06;5211161;27;19926;-57
2022/06/13 08:37:52;;;;;;;;;;;;;;;29.65;86.38;98639.09;5211220;27;19926;-57
2022/06/13 08:40:19;;;;;;;;;;;;;;;29.17;87.29;98635.03;5211233;27;19971;-57
2022/06/13 08:42:48;;;;;;;;;;;;;;;29.97;87.20;98620.69;5210877;27;20419;-57
2022/06/13 08:45:17;;;;;;;;;;;;;;;30.93;84.66;98624.31;5210893;27;20340;-57
2022/06/13 08:47:45;;;;;;;;;;;;;;;31.30;81.91;98637.34;5210984;27;19933;-57
2022/06/13 08:50:19;;;;;;;;;;;;;;;30.45;83.40;98636.69;5211290;27;19934;-57
2022/06/13 08:52:48;;;;;;;;;;;;;;;30.56;84.18;98638.00;5211012;27;19926;-57
2022/06/13 08:55:18;;;;;;;;;;;;;;;30.18;81.67;98649.53;5210838;27;19926;-57
2022/06/13 08:57:47;;;;;;;;;;;;;;;30.45;90.64;98616.88;5210947;27;19930;-57
2022/06/13 09:00:15;;;;;;;;;;;;;;;31.57;82.60;98640.63;5210749;27;19945;-57
2022/06/13 09:02:47;;;;;;;;;;;;;;;31.80;81.00;98636.38;5210808;27;19926;-57
2022/06/13 09:05:16;;;;;;;;;;;;;;;31.04;85.55;98629.19;5210833;27;20288;-57
2022/06/13 09:07:46;;;;;;;;;;;;;;;30.81;87.86;98617.13;5210680;27;19927;-57
2022/06/13 09:10:16;;;;;;;;;;;;;;;29.63;86.20;98619.09;5210442;27;19936;-58
2022/06/13 09:12:47;;;;;;;;;;;;;;;28.75;84.83;98624.50;5210619;27;19977;-58
2022/06/13 09:15:17;;;;;;;;;;;;;;;28.01;92.75;98599.78;5210596;27;19926;-57
2022/06/13 09:17:48;;;;;;;;;;;;;;;28.09;93.22;98598.84;5210601;27;20312;-58
2022/06/13 09:20:17;;;;;;;;;;;;;;;27.30;93.56;98585.94;5210671;27;19926;-58
2022/06/13 09:22:45;;;;;;;;;;;;;;;27.17;98.11;98563.78;5210428;27;19926;-58
2022/06/13 09:25:17;;;;;;;;;;;;;;;27.50;100.00;98562.63;5210664;27;19926;-56
2022/06/13 09:27:46;;;;;;;;;;;;;;;27.49;100.00;98546.22;5210377;27;19930;-57
2022/06/13 09:30:15;;;;;;;;;;;;;;;27.36;100.00;98560.69;5210454;27;19926;-57
2022/06/13 09:32:46;;;;;;;;;;;;;;;27.00;100.00;98545.91;5207151;27;19927;-57
2022/06/13 09:35:15;;;;;;;;;;;;;;;26.78;100.00;98523.88;5196041;27;19930;-56
2022/06/13 09:37:43;;;;;;;;;;;;;;;26.28;100.00;98544.34;5196096;27;19970;-56
2022/06/13 09:40:11;;;;;;;;;;;;;;;25.88;100.00;98497.25;5195917;27;19960;-55
2022/06/13 09:42:49;;;;;;;;;;;;;;;26.12;100.00;98499.13;5196104;27;19926;-57
2022/06/13 09:45:24;;;;;;;;;;;;;;;27.32;100.00;98518.66;5195717;27;19927;-57
2022/06/13 09:47:55;;;;;;;;;;;;;;;28.95;100.00;98534.06;5195929;27;19933;-57
2022/06/13 09:50:25;;;;;;;;;;;;;;;28.50;91.08;98583.81;5195876;27;19926;-57
2022/06/13 09:52:54;;;;;;;;;;;;;;;29.82;92.88;98577.00;5196120;27;19933;-57
2022/06/13 09:55:24;;;;;;;;;;;;;;;30.53;93.12;98579.63;5196001;27;20023;-57
2022/06/13 09:57:57;;;;;;;;;;;;;;;31.23;86.08;98584.09;5195851;27;20303;-57
2022/06/13 10:00:28;;;;;;;;;;;;;;;31.36;87.38;98592.06;5195727;27;19926;-58
2022/06/13 10:03:00;;;;;;;;;;;;;;;31.07;89.83;98577.19;5195289;27;19933;-57
2022/06/13 10:05:32;;;;;;;;;;;;;;;30.46;83.69;98601.47;5195307;27;19970;-57
2022/06/13 10:08:02;;;;;;;;;;;;;;;29.99;92.38;98586.25;5195557;27;20349;-57
2022/06/13 10:10:32;;;;;;;;;;;;;;;29.40;94.68;98570.97;5195386;27;19926;-56
2022/06/13 10:13:03;;;;;;;;;;;;;;;29.76;91.19;98583.41;5195756;27;19949;-57
2022/06/13 10:15:33;;;;;;;;;;;;;;;29.99;92.91;98574.94;5195555;27;20376;-57
2022/06/13 10:18:16;;;;;;;;;;;;;;;30.52;83.74;98592.97;5195389;27;20392;-57
2022/06/13 10:20:48;;;;;;;;;;;;;;;30.66;87.37;98588.34;5194940;27;19927;-57
2022/06/13 10:23:19;;;;;;;;;;;;;;;30.37;85.25;98589.66;5195337;27;19926;-57
2022/06/13 10:25:51;;;;;;;;;;;;;;;30.21;86.63;98582.72;5195186;27;20016;-57
2022/06/13 10:28:26;;;;;;;;;;;;;;;30.24;88.03;98571.16;5195160;27;19933;-57
2022/06/13 10:30:56;;;;;;;;;;;;;;;30.35;86.63;98578.84;5195218;27;20029;-57
2022/06/13 10:33:27;;;;;;;;;;;;;;;30.02;86.24;98588.84;5195610;27;19952;-57
2022/06/13 10:35:59;;;;;;;;;;;;;;;29.81;87.11;98592.41;5195193;27;19949;-57
2022/06/13 10:38:32;;;;;;;;;;;;;;;28.91;95.55;98567.41;5194843;27;20012;-56
2022/06/13 10:40:58;;;;;;;;;;;;;;;28.64;90.13;98570.84;5195078;27;20272;-56
2022/06/13 10:43:25;;;;;;;;;;;;;;;28.15;96.47;98545.34;5195302;27;19926;-55
2022/06/13 10:45:51;;;;;;;;;;;;;;;27.86;96.38;98535.13;5193884;27;19926;-55
2022/06/13 10:48:20;;;;;;;;;;;;;;;27.77;99.48;98526.84;5194886;27;19933;-56
2022/06/13 10:50:48;;;;;;;;;;;;;;;27.86;100.00;98501.31;5194878;27;20013;-56
2022/06/13 10:53:17;;;;;;;;;;;;;;;27.74;100.00;98502.47;5194887;27;19927;-56
2022/06/13 10:55:43;;;;;;;;;;;;;;;27.41;100.00;98487.56;5195077;27;19952;-57
2022/06/13 10:58:18;;;;;;;;;;;;;;;27.34;100.00;98496.44;5194887;27;19964;-55
2022/06/13 11:01:01;;;;;;;;;;;;;;;26.70;100.00;98494.66;5194740;27;20308;-56
2022/06/13 11:03:27;;;;;;;;;;;;;;;26.01;100.00;98482.91;5194475;27;19934;-55
2022/06/13 11:05:55;;;;;;;;;;;;;;;26.45;100.00;98463.09;5194553;27;19927;-56
2022/06/13 11:08:22;;;;;;;;;;;;;;;27.02;100.00;98470.22;5194807;27;19934;-54
2022/06/13 11:10:53;;;;;;;;;;;;;;;27.13;100.00;98466.81;5194678;27;19974;-55
2022/06/13 11:13:24;;;;;;;;;;;;;;;26.88;96.48;98499.22;5194798;27;19930;-57
2022/06/13 11:24:13;;;;;;;;;;;;;;;25.62;100.00;98448.53;5194564;27;19990;-55
2022/06/13 11:29:21;;;;;;;;;;;;;;;25.92;100.00;98427.59;5148033;27;20393;-55
2022/06/13 11:31:48;;;;;;;;;;;;;;;26.25;100.00;98416.09;5194209;27;19933;-56
2022/06/13 11:34:22;;;;;;;;;;;;;;;26.21;100.00;98389.47;5193957;27;19978;-56
2022/06/13 11:36:56;;;;;;;;;;;;;;;26.01;100.00;98409.88;5194581;27;19949;-56
2022/06/13 11:39:30;;;;;;;;;;;;;;;25.93;100.00;98422.78;5194043;27;19932;-55
2022/06/13 11:41:56;;;;;;;;;;;;;;;25.75;100.00;98424.50;5194061;27;20022;-57
2022/06/13 11:44:23;;;;;;;;;;;;;;;25.95;100.00;98435.06;5194142;27;19930;-53
2022/06/13 11:46:55;;;;;;;;;;;;;;;26.10;100.00;98428.66;5193989;27;20444;-54
2022/06/13 11:49:29;;;;;;;;;;;;;;;25.90;100.00;98415.34;5193986;27;19933;-53
2022/06/13 11:51:56;;;;;;;;;;;;;;;25.51;100.00;98396.56;5193868;27;19933;-54
2022/06/13 11:54:25;;;;;;;;;;;;;;;25.62;100.00;98398.00;5193971;27;19964;-55
2022/06/13 11:57:06;;;;;;;;;;;;;;;26.07;100.00;98407.94;5193422;27;19934;-54
2022/06/13 11:59:33;;;;;;;;;;;;;;;26.22;100.00;98403.00;5193804;27;19926;-55
2022/06/13 12:01:59;;;;;;;;;;;;;;;26.31;100.00;98404.94;5193613;27;19927;-55
2022/06/13 12:04:25;;;;;;;;;;;;;;;25.48;100.00;98369.47;5193788;27;19934;-54
2022/06/13 12:06:57;;;;;;;;;;;;;;;25.65;100.00;98403.44;5193803;27;19926;-55
2022/06/13 12:09:24;;;;;;;;;;;;;;;24.76;100.00;98388.56;5193963;27;19926;-54
2022/06/13 12:11:54;;;;;;;;;;;;;;;25.52;100.00;98378.47;5193828;27;20343;-55
2022/06/13 12:14:20;;;;;;;;;;;;;;;25.74;100.00;98375.25;5193775;27;19994;-55
2022/06/13 12:16:57;;;;;;;;;;;;;;;26.11;100.00;98345.91;5193804;27;19948;-55
2022/06/13 12:19:31;;;;;;;;;;;;;;;26.07;100.00;98331.31;5193363;27;19930;-56
2022/06/13 12:22:01;;;;;;;;;;;;;;;26.08;100.00;98330.06;5193475;27;19927;-55
2022/06/13 12:24:29;;;;;;;;;;;;;;;26.32;100.00;98389.59;5193422;27;19930;-54
2022/06/13 12:27:00;;;;;;;;;;;;;;;25.68;100.00;98379.22;5193729;27;19973;-52
2022/06/13 12:29:34;;;;;;;;;;;;;;;25.93;100.00;98375.81;5193278;27;19926;-54
2022/06/13 12:32:05;;;;;;;;;;;;;;;25.44;100.00;98363.31;5193420;27;20301;-52
2022/06/13 12:34:37;;;;;;;;;;;;;;;26.06;100.00;98361.44;5193624;27;19946;-54
2022/06/13 12:37:10;;;;;;;;;;;;;;;25.95;100.00;98327.56;5193227;27;20080;-54
2022/06/13 12:39:45;;;;;;;;;;;;;;;26.10;100.00;98333.16;5193585;27;19933;-54
2022/06/13 12:42:18;;;;;;;;;;;;;;;26.43;100.00;98305.47;5193121;27;19927;-55
2022/06/13 12:44:56;;;;;;;;;;;;;;;26.54;100.00;98365.91;5193352;27;20493;-54
2022/06/13 12:47:36;;;;;;;;;;;;;;;26.51;100.00;98334.69;5193202;27;19926;-54
2022/06/13 12:50:17;;;;;;;;;;;;;;;26.55;100.00;98328.84;5193115;27;20388;-55
2022/06/13 12:52:50;;;;;;;;;;;;;;;26.42;100.00;98308.75;5189737;27;19926;-54
2022/06/13 12:55:29;;;;;;;;;;;;;;;26.37;100.00;98298.22;5192945;27;19933;-54
2022/06/13 12:58:03;;;;;;;;;;;;;;;25.98;100.00;98329.41;5192848;27;19926;-54
2022/06/13 13:00:35;;;;;;;;;;;;;;;25.70;100.00;98293.28;5193443;27;20467;-55
2022/06/13 13:03:28;;;;;;;;;;;;;;;25.72;100.00;98293.53;5192792;27;19951;-54
2022/06/13 13:06:03;;;;;;;;;;;;;;;25.31;100.00;98310.31;5143065;27;19933;-55
2022/06/13 13:08:36;;;;;;;;;;;;;;;25.83;100.00;98325.91;5194174;27;20381;-54